Time,TemperatureF,DewpointF,PressureIn,WindDirection,WindDirectionDegrees,WindSpeedMPH,WindSpeedGustMPH,Humidity,HourlyPrecipIn,Conditions,Clouds,dailyrainin,SoftwareType,DateUTC
2013-02-01 17:03:00,27.1,13.5,30.47,West,267,3.0,3.0,56,0.00,,,0.02,Wunderground v.1.15,2013-02-01 23:03:00,
2013-02-01 17:04:00,27.1,14.3,30.47,West,270,3.0,3.0,58,0.00,,,0.02,Wunderground v.1.15,2013-02-01 23:04:00,
2013-02-01 17:07:00,26.9,13.7,30.47,West,265,3.0,4.0,57,0.00,,,0.02,Wunderground v.1.15,2013-02-01 23:07:00,
2013-02-01 17:10:00,26.6,13.8,30.47,West,263,3.0,3.0,58,0.00,,,0.02,Wunderground v.1.15,2013-02-01 23:10:00,
2013-02-01 17:16:00,26.1,13.7,30.47,West,269,2.0,3.0,59,0.00,,,0.02,Wunderground v.1.15,2013-02-01 23:16:00,
2013-02-01 17:22:00,25.9,14.7,30.47,West,269,2.0,2.0,62,0.00,,,0.02,Wunderground v.1.15,2013-02-01 23:22:00,
2013-02-01 17:28:00,25.6,14.4,30.47,West,259,2.0,5.0,62,0.00,,,0.02,Wunderground v.1.15,2013-02-01 23:28:00,
2013-02-01 17:33:00,25.3,15.5,30.47,West,261,2.0,3.0,66,0.00,,,0.02,Wunderground v.1.15,2013-02-01 23:33:00,
2013-02-01 17:38:00,25.1,15.0,30.47,West,261,2.0,3.0,65,0.00,,,0.02,Wunderground v.1.15,2013-02-01 23:38:00,
2013-02-01 17:43:00,25.2,14.0,30.47,West,261,2.0,2.0,62,0.00,,,0.02,Wunderground v.1.15,2013-02-01 23:43:00,
2013-02-01 17:49:00,25.2,14.4,30.48,West,262,1.0,2.0,63,0.00,,,0.02,Wunderground v.1.15,2013-02-01 23:49:00,
2013-02-01 17:55:00,25.1,13.9,30.47,West,262,1.0,2.0,62,0.00,,,0.02,Wunderground v.1.15,2013-02-01 23:55:00,
2013-02-01 18:00:00,25.0,13.8,30.47,West,262,0.0,0.0,62,0.00,,,0.02,Wunderground v.1.15,2013-02-02 00:00:00,
2013-02-01 18:06:00,24.9,14.4,30.48,West,262,0.0,0.0,64,0.00,,,0.02,Wunderground v.1.15,2013-02-02 00:06:00,
2013-02-01 18:12:00,24.8,14.7,30.48,West,262,0.0,0.0,65,0.00,,,0.02,Wunderground v.1.15,2013-02-02 00:12:00,
2013-02-01 18:17:00,24.8,14.7,30.48,West,262,0.0,1.0,65,0.00,,,0.02,Wunderground v.1.15,2013-02-02 00:17:00,
2013-02-01 18:23:00,24.8,14.7,30.48,West,271,1.0,1.0,65,0.00,,,0.02,Wunderground v.1.15,2013-02-02 00:23:00,
2013-02-01 18:28:00,24.8,14.7,30.48,West,271,1.0,1.0,65,0.00,,,0.02,Wunderground v.1.15,2013-02-02 00:28:00,
2013-02-01 18:34:00,24.7,14.9,30.47,West,271,0.0,1.0,66,0.00,,,0.02,Wunderground v.1.15,2013-02-02 00:34:00,
2013-02-01 18:39:00,24.5,17.4,30.46,West,271,0.0,1.0,74,0.00,,,0.02,Wunderground v.1.15,2013-02-02 00:39:00,
2013-02-01 18:44:00,24.2,18.0,30.46,West,271,0.0,0.0,77,0.00,,,0.02,Wunderground v.1.15,2013-02-02 00:44:00,
2013-02-01 18:50:00,23.9,17.7,30.45,West,271,0.0,0.0,77,0.00,,,0.02,Wunderground v.1.15,2013-02-02 00:50:00,
2013-02-01 18:56:00,23.8,17.9,30.44,West,271,0.0,1.0,78,0.00,,,0.02,Wunderground v.1.15,2013-02-02 00:56:00,
2013-02-01 19:01:00,23.6,17.7,30.44,West,271,0.0,0.0,78,0.00,,,0.02,Wunderground v.1.15,2013-02-02 01:01:00,
2013-02-01 19:06:00,23.6,17.1,30.44,West,271,0.0,0.0,76,0.00,,,0.02,Wunderground v.1.15,2013-02-02 01:06:00,
2013-02-01 19:11:00,23.6,17.4,30.44,West,271,0.0,0.0,77,0.00,,,0.02,Wunderground v.1.15,2013-02-02 01:11:00,
2013-02-01 19:16:00,23.5,16.7,30.44,West,271,0.0,0.0,75,0.00,,,0.02,Wunderground v.1.15,2013-02-02 01:16:00,
2013-02-01 19:22:00,23.6,16.2,30.44,West,271,0.0,0.0,73,0.00,,,0.02,Wunderground v.1.15,2013-02-02 01:22:00,
2013-02-01 19:28:00,23.7,17.2,30.43,West,271,0.0,0.0,76,0.00,,,0.02,Wunderground v.1.15,2013-02-02 01:28:00,
2013-02-01 19:34:00,23.6,17.7,30.44,West,271,0.0,0.0,78,0.00,,,0.02,Wunderground v.1.15,2013-02-02 01:34:00,
2013-02-01 19:40:00,23.6,16.8,30.43,West,271,0.0,0.0,75,0.00,,,0.02,Wunderground v.1.15,2013-02-02 01:40:00,
2013-02-01 19:45:00,23.9,17.1,30.43,West,271,0.0,1.0,75,0.00,,,0.02,Wunderground v.1.15,2013-02-02 01:45:00,
2013-02-01 19:50:00,24.0,17.8,30.43,West,271,0.0,0.0,77,0.00,,,0.02,Wunderground v.1.15,2013-02-02 01:50:00,
2013-02-01 19:56:00,24.1,17.0,30.42,West,271,0.0,0.0,74,0.00,,,0.02,Wunderground v.1.15,2013-02-02 01:56:00,
2013-02-01 20:01:00,24.2,16.8,30.42,West,271,0.0,1.0,73,0.00,,,0.02,Wunderground v.1.15,2013-02-02 02:01:00,
2013-02-01 20:06:00,24.4,17.0,30.42,West,271,0.0,1.0,73,0.00,,,0.02,Wunderground v.1.15,2013-02-02 02:06:00,
2013-02-01 20:12:00,24.6,17.2,30.41,West,271,0.0,1.0,73,0.00,,,0.02,Wunderground v.1.15,2013-02-02 02:12:00,
2013-02-01 20:17:00,24.8,17.7,30.41,West,271,0.0,1.0,74,0.00,,,0.02,Wunderground v.1.15,2013-02-02 02:17:00,
2013-02-01 20:23:00,24.9,17.1,30.42,West,271,0.0,0.0,72,0.00,,,0.02,Wunderground v.1.15,2013-02-02 02:23:00,
2013-02-01 20:29:00,24.9,15.8,30.42,West,271,0.0,0.0,68,0.00,,,0.02,Wunderground v.1.15,2013-02-02 02:29:00,
2013-02-01 20:34:00,24.9,16.2,30.43,West,271,0.0,0.0,69,0.00,,,0.02,Wunderground v.1.15,2013-02-02 02:34:00,
2013-02-01 20:39:00,24.9,17.1,30.43,West,271,0.0,1.0,72,0.00,,,0.02,Wunderground v.1.15,2013-02-02 02:39:00,
2013-02-01 20:45:00,25.0,17.2,30.43,West,271,0.0,1.0,72,0.00,,,0.02,Wunderground v.1.15,2013-02-02 02:45:00,
2013-02-01 20:50:00,25.0,16.9,30.43,West,271,1.0,1.0,71,0.00,,,0.02,Wunderground v.1.15,2013-02-02 02:50:00,
2013-02-01 20:56:00,25.1,17.3,30.43,West,271,0.0,1.0,72,0.00,,,0.02,Wunderground v.1.15,2013-02-02 02:56:00,
2013-02-01 21:02:00,25.0,16.9,30.44,West,271,0.0,0.0,71,0.00,,,0.02,Wunderground v.1.15,2013-02-02 03:02:00,
2013-02-01 21:07:00,25.0,16.6,30.43,West,271,0.0,0.0,70,0.00,,,0.02,Wunderground v.1.15,2013-02-02 03:07:00,
2013-02-01 21:12:00,25.0,16.3,30.44,West,271,0.0,0.0,69,0.00,,,0.02,Wunderground v.1.15,2013-02-02 03:12:00,
2013-02-01 21:17:00,25.1,17.0,30.44,West,271,0.0,0.0,71,0.00,,,0.02,Wunderground v.1.15,2013-02-02 03:17:00,
2013-02-01 21:22:00,25.1,17.0,30.44,West,271,0.0,0.0,71,0.00,,,0.02,Wunderground v.1.15,2013-02-02 03:22:00,
2013-02-01 21:28:00,25.1,17.0,30.44,West,271,0.0,0.0,71,0.00,,,0.02,Wunderground v.1.15,2013-02-02 03:28:00,
2013-02-01 21:34:00,25.1,17.3,30.44,West,271,0.0,0.0,72,0.00,,,0.02,Wunderground v.1.15,2013-02-02 03:34:00,
2013-02-01 21:40:00,25.1,18.0,30.44,West,271,0.0,0.0,74,0.00,,,0.02,Wunderground v.1.15,2013-02-02 03:40:00,
2013-02-01 21:45:00,25.1,18.0,30.44,West,271,0.0,0.0,74,0.00,,,0.02,Wunderground v.1.15,2013-02-02 03:45:00,
2013-02-01 21:51:00,25.1,18.3,30.43,West,271,0.0,0.0,75,0.00,,,0.02,Wunderground v.1.15,2013-02-02 03:51:00,
2013-02-01 21:56:00,25.2,19.0,30.43,West,271,0.0,0.0,77,0.00,,,0.02,Wunderground v.1.15,2013-02-02 03:56:00,
2013-02-01 22:02:00,25.3,19.4,30.42,West,271,0.0,0.0,78,0.00,,,0.02,Wunderground v.1.15,2013-02-02 04:02:00,
2013-02-01 22:07:00,25.3,19.1,30.42,West,271,0.0,0.0,77,0.00,,,0.02,Wunderground v.1.15,2013-02-02 04:07:00,
2013-02-01 22:12:00,25.4,19.8,30.41,West,269,0.0,0.0,79,0.00,,,0.02,Wunderground v.1.15,2013-02-02 04:12:00,
2013-02-01 22:18:00,25.5,19.9,30.41,West,266,0.0,0.0,79,0.00,,,0.02,Wunderground v.1.15,2013-02-02 04:18:00,
2013-02-01 22:24:00,25.5,19.6,30.42,West,266,0.0,0.0,78,0.00,,,0.02,Wunderground v.1.15,2013-02-02 04:24:00,
2013-02-01 22:29:00,25.5,19.3,30.42,West,266,0.0,1.0,77,0.00,,,0.02,Wunderground v.1.15,2013-02-02 04:29:00,
2013-02-01 22:34:00,25.4,19.5,30.41,West,266,0.0,0.0,78,0.00,,,0.02,Wunderground v.1.15,2013-02-02 04:34:00,
2013-02-01 22:40:00,25.4,19.8,30.41,West,260,0.0,1.0,79,0.00,,,0.02,Wunderground v.1.15,2013-02-02 04:40:00,
2013-02-01 22:46:00,25.4,19.5,30.40,WSW,238,0.0,1.0,78,0.00,,,0.02,Wunderground v.1.15,2013-02-02 04:46:00,
2013-02-01 22:51:00,25.3,19.4,30.40,SW,215,1.0,1.0,78,0.00,,,0.02,Wunderground v.1.15,2013-02-02 04:51:00,
2013-02-01 22:56:00,25.3,19.7,30.40,SW,215,1.0,1.0,79,0.00,,,0.02,Wunderground v.1.15,2013-02-02 04:56:00,
2013-02-01 23:00:00,25.3,19.7,30.40,SW,215,0.0,1.0,79,0.00,,,0.02,Wunderground v.1.15,2013-02-02 05:00:00,
2013-02-01 23:02:00,25.3,19.7,30.40,SW,215,0.0,1.0,79,0.00,,,0.02,Wunderground v.1.15,2013-02-02 05:02:00,
2013-02-01 23:03:00,25.3,19.7,30.40,SW,215,0.0,1.0,79,0.00,,,0.02,Wunderground v.1.15,2013-02-02 05:03:00,
2013-02-01 23:05:00,25.3,19.7,30.39,SW,215,0.0,1.0,79,0.00,,,0.02,Wunderground v.1.15,2013-02-02 05:05:00,
2013-02-01 23:10:00,25.2,19.6,30.39,SW,215,0.0,0.0,79,0.00,,,0.02,Wunderground v.1.15,2013-02-02 05:10:00,
2013-02-01 23:15:00,25.1,19.5,30.39,SW,214,1.0,1.0,79,0.00,,,0.02,Wunderground v.1.15,2013-02-02 05:15:00,
2013-02-01 23:21:00,25.0,19.7,30.39,SW,214,1.0,1.0,80,0.00,,,0.02,Wunderground v.1.15,2013-02-02 05:21:00,
2013-02-01 23:26:00,24.9,19.6,30.39,SW,214,0.0,1.0,80,0.00,,,0.02,Wunderground v.1.15,2013-02-02 05:26:00,
2013-02-01 23:31:00,24.8,19.8,30.39,SW,214,0.0,1.0,81,0.00,,,0.02,Wunderground v.1.15,2013-02-02 05:31:00,
2013-02-01 23:37:00,24.7,19.7,30.39,SW,214,0.0,1.0,81,0.00,,,0.02,Wunderground v.1.15,2013-02-02 05:37:00,
2013-02-01 23:42:00,24.7,19.4,30.39,SW,214,0.0,0.0,80,0.00,,,0.02,Wunderground v.1.15,2013-02-02 05:42:00,
2013-02-01 23:48:00,24.6,19.6,30.39,SW,214,0.0,0.0,81,0.00,,,0.02,Wunderground v.1.15,2013-02-02 05:48:00,
2013-02-01 23:53:00,24.5,19.5,30.39,SW,214,0.0,0.0,81,0.00,,,0.02,Wunderground v.1.15,2013-02-02 05:53:00,
2013-02-01 23:58:00,24.5,19.2,30.39,SW,214,0.0,0.0,80,0.00,,,0.02,Wunderground v.1.15,2013-02-02 05:58:00,